createdAt,value
2023-05-19T00:00:48.193Z,102404.19
2023-05-19T00:03:17.780Z,102403.31
2023-05-19T00:05:46.181Z,102406.53
2023-05-19T00:08:16.791Z,102398.53
2023-05-19T00:10:43.898Z,102406.13
2023-05-19T00:13:10.676Z,102398.44
2023-05-19T00:15:37.628Z,102403.56
2023-05-19T00:18:04.257Z,102399.53
2023-05-19T00:20:30.854Z,102395.84
2023-05-19T00:22:57.417Z,102395.59
2023-05-19T00:25:24.129Z,102396.81
2023-05-19T00:27:50.628Z,102396.31
2023-05-19T00:30:17.201Z,102381.22
2023-05-19T00:32:43.927Z,102383.56
2023-05-19T00:35:11.486Z,102377.81
2023-05-19T00:37:37.951Z,102372.75
2023-05-19T00:40:06.242Z,102367.97
2023-05-19T00:42:32.827Z,102372.28
2023-05-19T00:44:59.917Z,102373.50
2023-05-19T00:47:26.460Z,102377.16
2023-05-19T00:49:53.024Z,102375.56
2023-05-19T00:52:19.678Z,102375.34
2023-05-19T00:54:46.489Z,102380.97
2023-05-19T00:57:14.749Z,102375.34
2023-05-19T00:59:41.310Z,102370.78
2023-05-19T01:02:08.131Z,102378.63
2023-05-19T01:04:37.000Z,102376.81
2023-05-19T01:07:03.819Z,102383.63
2023-05-19T01:09:32.288Z,102376.38
2023-05-19T01:11:59.815Z,102384.00
2023-05-19T01:14:27.043Z,102381.66
2023-05-19T01:17:20.736Z,102378.56
2023-05-19T01:20:06.605Z,102377.69
2023-05-19T01:22:48.206Z,102376.13
2023-05-19T01:25:48.710Z,102379.91
2023-05-19T01:28:30.212Z,102377.44
2023-05-19T01:30:59.699Z,102374.28
2023-05-19T01:33:28.633Z,102370.44
2023-05-19T01:35:55.917Z,102372.81
2023-05-19T01:38:24.616Z,102374.34
2023-05-19T01:40:52.401Z,102368.97
2023-05-19T01:43:22.139Z,102365.41
2023-05-19T01:45:49.157Z,102370.00
2023-05-19T01:48:16.294Z,102365.84
2023-05-19T01:50:43.409Z,102361.47
2023-05-19T01:53:10.631Z,102356.72
2023-05-19T01:55:51.343Z,102359.44
2023-05-19T01:58:45.940Z,102363.50
2023-05-19T02:01:42.785Z,102367.91
2023-05-19T02:04:15.201Z,102355.66
2023-05-19T02:06:54.493Z,102359.19
2023-05-19T02:09:32.950Z,102358.34
2023-05-19T02:12:14.276Z,102355.13
2023-05-19T02:15:00.225Z,102356.91
2023-05-19T02:17:33.156Z,102357.06
2023-05-19T02:20:00.138Z,102358.94
2023-05-19T02:22:26.658Z,102354.50
2023-05-19T02:24:53.169Z,102345.25
2023-05-19T02:27:19.711Z,102350.03
2023-05-19T02:29:46.156Z,102357.31
2023-05-19T02:32:13.244Z,102357.66
2023-05-19T02:34:40.197Z,102354.00
2023-05-19T02:37:07.834Z,102355.53
2023-05-19T02:39:35.427Z,102347.09
2023-05-19T02:42:01.949Z,102348.19
2023-05-19T02:44:28.450Z,102338.69
2023-05-19T02:46:55.081Z,102339.28
2023-05-19T02:49:21.673Z,102336.66
2023-05-19T02:51:48.188Z,102334.19
2023-05-19T02:54:14.808Z,102333.75
2023-05-19T02:56:41.395Z,102332.28
2023-05-19T02:59:07.891Z,102331.78
2023-05-19T03:01:34.537Z,102330.69
2023-05-19T03:04:01.291Z,102326.25
2023-05-19T03:06:28.265Z,102325.50
2023-05-19T03:08:54.858Z,102332.81
2023-05-19T03:11:23.211Z,102326.81
2023-05-19T03:13:49.717Z,102329.00
2023-05-19T03:16:16.215Z,102327.19
2023-05-19T03:18:43.123Z,102325.84
2023-05-19T03:21:09.658Z,102323.78
2023-05-19T03:23:36.353Z,102322.00
2023-05-19T03:26:04.232Z,102321.53
2023-05-19T03:28:30.959Z,102328.50
2023-05-19T03:30:57.612Z,102332.50
2023-05-19T03:33:24.290Z,102329.69
2023-05-19T03:35:50.937Z,102331.28
2023-05-19T03:38:17.478Z,102336.06
2023-05-19T03:40:45.050Z,102328.81
2023-05-19T03:43:11.571Z,102330.53
2023-05-19T03:45:38.087Z,102330.75
2023-05-19T03:48:05.057Z,102335.56
2023-05-19T03:50:31.979Z,102342.06
2023-05-19T03:52:58.880Z,102346.56
2023-05-19T03:55:25.807Z,102352.31
2023-05-19T03:57:55.204Z,102343.25
2023-05-19T04:00:21.841Z,102345.09
2023-05-19T04:02:48.460Z,102343.13
2023-05-19T04:05:15.157Z,102339.50
2023-05-19T04:07:41.736Z,102347.44
2023-05-19T04:10:08.568Z,102337.88
2023-05-19T04:12:35.011Z,102343.34
2023-05-19T04:15:01.690Z,102339.78
2023-05-19T04:17:28.419Z,102344.16
2023-05-19T04:19:55.609Z,102339.13
2023-05-19T04:22:22.621Z,102342.69
2023-05-19T04:24:50.536Z,102341.97
2023-05-19T04:27:18.312Z,102341.84
2023-05-19T04:29:46.166Z,102350.91
2023-05-19T04:32:17.530Z,102350.47
2023-05-19T04:34:46.144Z,102350.19
2023-05-19T04:37:14.152Z,102342.78
2023-05-19T04:39:43.437Z,102340.66
2023-05-19T04:42:11.393Z,102341.59
2023-05-19T04:44:40.258Z,102346.41
2023-05-19T04:47:08.924Z,102339.31
2023-05-19T04:49:39.045Z,102343.72
2023-05-19T04:52:12.548Z,102348.16
2023-05-19T04:54:40.104Z,102346.78
2023-05-19T04:57:06.798Z,102355.16
2023-05-19T04:59:33.586Z,102351.00
2023-05-19T05:02:00.430Z,102350.56
2023-05-19T05:04:27.046Z,102354.84
2023-05-19T05:06:53.495Z,102358.16
2023-05-19T05:09:20.090Z,102360.03
2023-05-19T05:11:47.225Z,102363.81
2023-05-19T05:14:13.971Z,102359.53
2023-05-19T05:16:40.911Z,102357.56
2023-05-19T05:19:07.680Z,102358.94
2023-05-19T05:21:34.754Z,102363.03
2023-05-19T05:24:01.503Z,102360.84
2023-05-19T05:26:31.557Z,102359.88
2023-05-19T05:28:58.068Z,102361.00
2023-05-19T05:31:24.513Z,102364.31
2023-05-19T05:33:51.108Z,102363.22
2023-05-19T05:36:17.737Z,102364.81
2023-05-19T05:38:44.629Z,102363.72
2023-05-19T05:41:11.322Z,102361.78
2023-05-19T05:43:37.842Z,102362.41
2023-05-19T05:46:04.382Z,102355.78
2023-05-19T05:48:31.109Z,102355.94
2023-05-19T05:50:59.220Z,102350.66
2023-05-19T05:53:27.924Z,102348.94
2023-05-19T05:55:54.923Z,102352.28
2023-05-19T05:58:22.235Z,102350.69
2023-05-19T06:00:49.373Z,102354.50
2023-05-19T06:03:16.951Z,102357.19
2023-05-19T06:05:43.728Z,102352.44
2023-05-19T06:08:10.334Z,102352.06
2023-05-19T06:10:39.023Z,102353.41
2023-05-19T06:13:05.595Z,102350.09
2023-05-19T06:15:32.115Z,102344.91
2023-05-19T06:17:59.253Z,102343.00
2023-05-19T06:20:26.305Z,102344.53
2023-05-19T06:22:52.837Z,102341.91
2023-05-19T06:25:20.539Z,102345.09
2023-05-19T06:27:47.143Z,102343.91
2023-05-19T06:30:13.918Z,102336.91
2023-05-19T06:32:40.615Z,102334.09
2023-05-19T06:35:07.529Z,102337.84
2023-05-19T06:37:34.006Z,102327.19
2023-05-19T06:40:00.876Z,102336.66
2023-05-19T06:42:27.334Z,102325.69
2023-05-19T06:44:53.819Z,102327.88
2023-05-19T06:47:20.273Z,102323.91
2023-05-19T06:49:50.688Z,102323.47
2023-05-19T06:52:17.421Z,102311.56
2023-05-19T06:54:43.891Z,102321.28
2023-05-19T06:57:10.500Z,102327.59
2023-05-19T06:59:37.652Z,102330.69
2023-05-19T07:02:04.795Z,102327.59
2023-05-19T07:04:31.416Z,102329.56
2023-05-19T07:06:57.876Z,102328.78
2023-05-19T07:09:24.444Z,102325.00
2023-05-19T07:11:51.189Z,102332.56
2023-05-19T07:14:17.707Z,102330.53
2023-05-19T07:16:44.611Z,102334.72
2023-05-19T07:19:11.244Z,102336.63
2023-05-19T07:21:37.882Z,102329.78
2023-05-19T07:24:04.586Z,102333.19
2023-05-19T07:26:31.921Z,102326.50
2023-05-19T07:28:58.480Z,102333.25
2023-05-19T07:31:25.038Z,102335.69
2023-05-19T07:33:54.281Z,102331.22
2023-05-19T07:36:21.452Z,102326.72
2023-05-19T07:38:48.165Z,102335.91
2023-05-19T07:41:15.089Z,102328.03
2023-05-19T07:43:41.659Z,102329.97
2023-05-19T07:46:08.486Z,102326.41
2023-05-19T07:48:34.991Z,102327.00
2023-05-19T07:51:02.277Z,102320.66
2023-05-19T07:53:29.139Z,102321.72
2023-05-19T07:55:58.373Z,102315.31
2023-05-19T07:58:25.397Z,102322.50
2023-05-19T08:00:53.331Z,102311.25
2023-05-19T08:03:20.968Z,102311.28
2023-05-19T08:05:47.923Z,102295.03
2023-05-19T08:08:16.679Z,102302.34
2023-05-19T08:10:43.560Z,102302.34
2023-05-19T08:13:10.105Z,102299.94
2023-05-19T08:15:36.928Z,102283.34
2023-05-19T08:18:05.275Z,102299.28
2023-05-19T08:20:32.879Z,102292.06
2023-05-19T08:22:59.620Z,102291.56
2023-05-19T08:25:26.140Z,102284.56
2023-05-19T08:27:52.619Z,102281.41
2023-05-19T08:30:19.121Z,102286.47
2023-05-19T08:32:45.612Z,102286.44
2023-05-19T08:35:12.206Z,102285.59
2023-05-19T08:37:38.765Z,102287.19
2023-05-19T08:40:06.338Z,102263.94
2023-05-19T08:42:33.881Z,102267.06
2023-05-19T08:45:01.742Z,102271.56
2023-05-19T08:47:28.795Z,102266.22
2023-05-19T08:50:04.925Z,102271.44
2023-05-19T08:52:57.849Z,102276.38
2023-05-19T08:55:33.875Z,102273.44
2023-05-19T08:58:04.816Z,102264.16
2023-05-19T09:00:32.668Z,102260.25
2023-05-19T09:03:16.907Z,102260.91
2023-05-19T09:05:46.539Z,102265.78
2023-05-19T09:08:13.772Z,102259.66
2023-05-19T09:10:40.336Z,102262.03
2023-05-19T09:13:06.926Z,102253.81
2023-05-19T09:15:36.814Z,102253.13
2023-05-19T09:18:12.347Z,102259.47
2023-05-19T09:20:46.334Z,102264.59
2023-05-19T09:23:17.578Z,102259.41
2023-05-19T09:25:49.203Z,102250.22
2023-05-19T09:28:26.717Z,102242.34
2023-05-19T09:31:11.508Z,102239.09
2023-05-19T09:33:39.575Z,102234.34
2023-05-19T09:36:08.388Z,102231.13
2023-05-19T09:38:36.463Z,102231.56
2023-05-19T09:41:03.956Z,102235.25
2023-05-19T09:43:31.817Z,102236.06
2023-05-19T09:46:06.686Z,102234.09
2023-05-19T09:48:34.747Z,102235.13
2023-05-19T09:51:02.431Z,102241.78
2023-05-19T09:53:32.634Z,102244.53
2023-05-19T09:56:01.625Z,102236.16
2023-05-19T09:58:34.592Z,102233.28
2023-05-19T10:01:01.661Z,102227.47
2023-05-19T10:03:28.500Z,102234.16
2023-05-19T10:05:56.285Z,102232.41
2023-05-19T10:08:26.492Z,102231.50
2023-05-19T10:10:53.097Z,102231.91
2023-05-19T10:13:21.357Z,102210.47
2023-05-19T10:18:21.092Z,102219.66
2023-05-19T10:20:50.011Z,102209.31
2023-05-19T10:23:16.723Z,102211.00
2023-05-19T10:25:43.843Z,102201.69
2023-05-19T10:28:16.768Z,102201.84
2023-05-19T10:30:46.413Z,102198.28
2023-05-19T10:33:16.715Z,102195.53
2023-05-19T10:35:47.267Z,102191.09
2023-05-19T10:38:22.761Z,102188.91
2023-05-19T10:41:10.539Z,102189.56
2023-05-19T10:43:56.020Z,102178.91
2023-05-19T10:46:27.510Z,102179.75
2023-05-19T10:48:54.579Z,102187.59
2023-05-19T10:51:21.376Z,102187.41
2023-05-19T10:53:50.005Z,102184.50
2023-05-19T10:56:34.703Z,102184.63
2023-05-19T10:59:02.286Z,102177.72
2023-05-19T11:01:34.015Z,102181.97
2023-05-19T11:04:12.547Z,102180.06
2023-05-19T11:06:40.416Z,102191.50
2023-05-19T11:09:12.485Z,102177.47
2023-05-19T11:11:52.929Z,102170.72
2023-05-19T11:14:22.973Z,102170.03
2023-05-19T11:16:51.799Z,102179.41
2023-05-19T11:19:37.022Z,102170.94
2023-05-19T11:22:11.748Z,102171.59
2023-05-19T11:24:45.871Z,102168.16
2023-05-19T11:27:31.966Z,102170.91
2023-05-19T11:30:01.898Z,102173.84
2023-05-19T11:32:30.682Z,102166.44
2023-05-19T11:34:58.187Z,102177.22
2023-05-19T11:37:25.312Z,102167.91
2023-05-19T11:39:53.335Z,102165.22
2023-05-19T11:42:20.331Z,102155.88
2023-05-19T11:44:47.104Z,102163.13
2023-05-19T11:47:17.293Z,102158.66
2023-05-19T11:49:54.945Z,102159.03
2023-05-19T11:52:23.198Z,102147.38
2023-05-19T11:54:50.018Z,102151.88
2023-05-19T11:57:16.944Z,102160.00
2023-05-19T11:59:48.290Z,102148.16
2023-05-19T12:02:22.684Z,102145.00
2023-05-19T12:04:49.631Z,102139.84
2023-05-19T12:07:19.899Z,102139.09
2023-05-19T12:09:47.252Z,102136.69
2023-05-19T12:12:18.709Z,102143.41
2023-05-19T12:14:51.016Z,102143.78
2023-05-19T12:17:19.891Z,102137.91
2023-05-19T12:19:48.084Z,102143.75
2023-05-19T12:22:18.134Z,102137.63
2023-05-19T12:24:45.461Z,102142.16
2023-05-19T12:27:23.622Z,102136.72
2023-05-19T12:29:54.223Z,102131.72
2023-05-19T12:32:28.621Z,102138.44
2023-05-19T12:34:58.819Z,102133.06
2023-05-19T12:37:30.171Z,102132.00
2023-05-19T12:39:57.470Z,102133.34
2023-05-19T12:42:26.801Z,102126.50
2023-05-19T12:44:54.682Z,102122.69
2023-05-19T12:47:21.217Z,102127.00
2023-05-19T12:50:00.349Z,102121.16
2023-05-19T12:52:29.708Z,102122.44
2023-05-19T12:55:07.663Z,102113.75
2023-05-19T12:57:36.110Z,102119.44
2023-05-19T13:00:07.179Z,102109.94
2023-05-19T13:02:36.170Z,102111.94
2023-05-19T13:05:04.685Z,102101.78
2023-05-19T13:07:31.195Z,102103.13
2023-05-19T13:09:57.770Z,102098.28
2023-05-19T13:12:24.654Z,102085.34
2023-05-19T13:14:52.889Z,102094.13
2023-05-19T13:17:20.638Z,102091.00
2023-05-19T13:19:47.186Z,102096.31
2023-05-19T13:22:14.049Z,102089.00
2023-05-19T13:24:41.054Z,102083.53
2023-05-19T13:27:07.983Z,102086.50
2023-05-19T13:29:34.510Z,102076.69
2023-05-19T13:32:01.661Z,102085.25
2023-05-19T13:34:28.234Z,102083.66
2023-05-19T13:36:54.916Z,102074.19
2023-05-19T13:39:21.451Z,102081.94
2023-05-19T13:41:48.040Z,102079.22
2023-05-19T13:44:14.591Z,102077.25
2023-05-19T13:46:45.632Z,102080.78
2023-05-19T13:49:13.381Z,102071.16
2023-05-19T13:51:43.577Z,102062.97
2023-05-19T13:54:10.429Z,102060.34
2023-05-19T13:56:37.064Z,102062.88
2023-05-19T13:59:04.119Z,102069.25
2023-05-19T14:01:30.848Z,102071.38
2023-05-19T14:03:57.721Z,102074.06
2023-05-19T14:06:24.479Z,102067.53
2023-05-19T14:08:50.935Z,102059.50
2023-05-19T14:11:19.636Z,102058.75
2023-05-19T14:13:46.853Z,102056.16
2023-05-19T14:16:13.384Z,102055.41
2023-05-19T14:18:39.927Z,102054.63
2023-05-19T14:21:06.414Z,102059.25
2023-05-19T14:23:33.018Z,102049.13
2023-05-19T14:25:59.694Z,102051.00
2023-05-19T14:28:26.524Z,102047.63
2023-05-19T14:30:53.112Z,102045.31
2023-05-19T14:33:21.131Z,102045.53
2023-05-19T14:35:47.928Z,102057.19
2023-05-19T14:38:14.488Z,102049.75
2023-05-19T14:40:41.666Z,102040.81
2023-05-19T14:43:08.302Z,102041.94
2023-05-19T14:45:35.349Z,102040.44
2023-05-19T14:48:02.113Z,102037.34
2023-05-19T14:50:29.420Z,102034.63
2023-05-19T14:52:56.787Z,102035.13
2023-05-19T14:55:23.322Z,102033.56
2023-05-19T14:57:50.236Z,102027.47
2023-05-19T15:00:17.776Z,102039.50
2023-05-19T15:02:44.565Z,102053.34
2023-05-19T15:05:11.808Z,102037.59
2023-05-19T15:07:38.323Z,102038.28
2023-05-19T15:10:06.873Z,102029.69
2023-05-19T15:12:33.406Z,102031.25
2023-05-19T15:14:59.959Z,102032.69
2023-05-19T15:17:26.586Z,102029.09
2023-05-19T15:19:53.385Z,102030.03
2023-05-19T15:22:19.886Z,102032.63
2023-05-19T15:24:46.400Z,102026.84
2023-05-19T15:27:12.911Z,102025.56
2023-05-19T15:29:39.448Z,102028.50
2023-05-19T15:32:06.649Z,102017.81
2023-05-19T15:34:33.169Z,102024.84
2023-05-19T15:36:59.747Z,102024.25
2023-05-19T15:39:26.341Z,102031.63
2023-05-19T15:41:52.900Z,102031.03
2023-05-19T15:44:19.374Z,102032.78
2023-05-19T15:46:46.020Z,102020.09
2023-05-19T15:49:12.973Z,102019.44
2023-05-19T15:51:39.885Z,102015.44
2023-05-19T15:54:06.462Z,102012.19
2023-05-19T15:56:33.059Z,102016.53
2023-05-19T15:58:59.652Z,102019.53
2023-05-19T16:01:26.418Z,102023.66
2023-05-19T16:03:53.461Z,102020.06
2023-05-19T16:06:20.183Z,102027.53
2023-05-19T16:08:46.660Z,102015.78
2023-05-19T16:11:13.287Z,102008.72
2023-05-19T16:13:39.805Z,102007.66
2023-05-19T16:16:06.727Z,102004.91
2023-05-19T16:18:33.284Z,102006.59
2023-05-19T16:20:59.934Z,101997.03
2023-05-19T16:23:27.410Z,101998.41
2023-05-19T16:25:54.843Z,101989.31
2023-05-19T16:28:23.247Z,101998.25
2023-05-19T16:30:51.311Z,101999.63
2023-05-19T16:33:17.820Z,102005.34
2023-05-19T16:35:44.349Z,102004.38
2023-05-19T16:38:10.838Z,102001.09
2023-05-19T16:40:38.122Z,101999.25
2023-05-19T16:43:04.641Z,101996.41
2023-05-19T16:45:31.123Z,101988.94
2023-05-19T16:47:57.759Z,102001.75
2023-05-19T16:50:24.354Z,101998.09
2023-05-19T16:52:50.871Z,101990.69
2023-05-19T16:55:20.133Z,101989.16
2023-05-19T16:57:47.161Z,101994.31
2023-05-19T17:00:14.531Z,101993.91
2023-05-19T17:02:41.325Z,101986.03
2023-05-19T17:05:08.377Z,101995.53
2023-05-19T17:07:34.916Z,101996.88
2023-05-19T17:10:01.375Z,101990.31
2023-05-19T17:12:27.882Z,101993.88
2023-05-19T17:14:54.506Z,101994.50
2023-05-19T17:17:21.252Z,101995.09
2023-05-19T17:19:47.694Z,101994.03
2023-05-19T17:22:14.159Z,101992.72
2023-05-19T17:24:41.231Z,101991.25
2023-05-19T17:27:07.944Z,101994.41
2023-05-19T17:29:34.880Z,101995.09
2023-05-19T17:32:03.714Z,101988.53
2023-05-19T17:34:30.730Z,101987.03
2023-05-19T17:36:57.299Z,101989.94
2023-05-19T17:39:24.754Z,102010.03
2023-05-19T17:41:51.245Z,102003.22
2023-05-19T17:44:17.754Z,102008.69
2023-05-19T17:46:44.397Z,102010.66
2023-05-19T17:49:12.975Z,102008.78
2023-05-19T17:51:39.728Z,102005.97
2023-05-19T17:54:06.694Z,102013.19
2023-05-19T17:56:34.385Z,102010.00
2023-05-19T17:59:01.354Z,102008.88
2023-05-19T18:01:28.155Z,102014.06
2023-05-19T18:03:55.006Z,102011.75
2023-05-19T18:06:24.119Z,102012.56
2023-05-19T18:08:51.818Z,102006.06
2023-05-19T18:11:18.635Z,102011.31
2023-05-19T18:13:45.172Z,102010.38
2023-05-19T18:16:12.402Z,102014.97
2023-05-19T18:18:41.162Z,102007.09
2023-05-19T18:21:07.701Z,102013.47
2023-05-19T18:23:34.189Z,102018.19
2023-05-19T18:26:00.743Z,102021.47
2023-05-19T18:28:27.329Z,102014.72
2023-05-19T18:31:01.235Z,102017.63
2023-05-19T18:33:30.115Z,102021.75
2023-05-19T18:35:58.385Z,102018.19
2023-05-19T18:38:24.936Z,102023.34
2023-05-19T18:40:52.028Z,102031.59
2023-05-19T18:43:19.239Z,102026.97
2023-05-19T18:45:48.621Z,102026.91
2023-05-19T18:48:15.658Z,102031.75
2023-05-19T18:50:44.052Z,102036.84
2023-05-19T18:53:11.712Z,102036.34
2023-05-19T18:55:38.609Z,102037.06
2023-05-19T18:58:06.209Z,102037.41
2023-05-19T19:00:33.129Z,102039.47
2023-05-19T19:02:59.896Z,102043.31
2023-05-19T19:05:26.426Z,102053.84
2023-05-19T19:07:53.452Z,102045.88
2023-05-19T19:10:20.219Z,102050.66
2023-05-19T19:12:47.044Z,102050.00
2023-05-19T19:15:13.634Z,102055.78
2023-05-19T19:17:40.231Z,102053.41
2023-05-19T19:20:08.647Z,102056.81
2023-05-19T19:22:35.483Z,102062.63
2023-05-19T19:25:01.962Z,102067.53
2023-05-19T19:27:31.085Z,102062.94
2023-05-19T19:29:58.664Z,102062.09
2023-05-19T19:32:25.644Z,102065.66
2023-05-19T19:34:55.306Z,102069.91
2023-05-19T19:37:21.798Z,102067.72
2023-05-19T19:39:48.326Z,102068.38
2023-05-19T19:42:14.837Z,102072.63
2023-05-19T19:44:41.321Z,102075.00
2023-05-19T19:47:07.949Z,102086.59
2023-05-19T19:49:34.532Z,102088.59
2023-05-19T19:52:01.189Z,102089.13
2023-05-19T19:54:27.698Z,102092.88
2023-05-19T19:56:54.454Z,102096.41
2023-05-19T19:59:21.003Z,102102.34
2023-05-19T20:01:47.485Z,102096.41
2023-05-19T20:04:14.051Z,102095.53
2023-05-19T20:06:40.866Z,102103.84
2023-05-19T20:09:07.676Z,102098.34
2023-05-19T20:11:34.382Z,102096.81
2023-05-19T20:14:00.914Z,102104.22
2023-05-19T20:16:27.564Z,102105.94
2023-05-19T20:18:54.534Z,102103.22
2023-05-19T20:21:21.047Z,102104.59
2023-05-19T20:23:48.269Z,102101.69
2023-05-19T20:26:14.900Z,102106.41
2023-05-19T20:28:41.630Z,102109.41
2023-05-19T20:31:08.677Z,102100.56
2023-05-19T20:33:35.325Z,102110.91
2023-05-19T20:36:01.906Z,102108.66
2023-05-19T20:38:28.348Z,102113.88
2023-05-19T20:40:54.886Z,102112.19
2023-05-19T20:43:21.640Z,102113.63
2023-05-19T20:45:48.311Z,102112.94
2023-05-19T20:48:15.878Z,102111.59
2023-05-19T20:50:42.586Z,102111.41
2023-05-19T20:53:09.103Z,102112.72
2023-05-19T20:55:38.558Z,102109.63
2023-05-19T20:58:05.457Z,102113.00
2023-05-19T21:00:32.514Z,102114.47
2023-05-19T21:02:59.424Z,102119.22
2023-05-19T21:05:26.185Z,102120.59
2023-05-19T21:07:52.677Z,102119.19
2023-05-19T21:10:19.199Z,102109.81
2023-05-19T21:12:46.347Z,102115.94
2023-05-19T21:15:13.548Z,102112.75
2023-05-19T21:17:40.392Z,102118.31
2023-05-19T21:20:07.668Z,102125.34
2023-05-19T21:22:35.679Z,102126.63
2023-05-19T21:25:02.203Z,102132.47
2023-05-19T21:27:28.700Z,102127.44
2023-05-19T21:29:55.507Z,102129.19
2023-05-19T21:32:22.108Z,102139.16
2023-05-19T21:34:48.842Z,102138.59
2023-05-19T21:37:17.292Z,102134.03
2023-05-19T21:39:44.426Z,102136.09
2023-05-19T21:42:10.937Z,102140.31
2023-05-19T21:44:37.505Z,102133.16
2023-05-19T21:47:04.050Z,102138.03
2023-05-19T21:49:31.225Z,102139.59
2023-05-19T21:51:57.915Z,102135.88
2023-05-19T21:54:24.489Z,102141.41
2023-05-19T21:56:51.018Z,102143.09
2023-05-19T21:59:17.551Z,102141.41
2023-05-19T22:01:44.202Z,102139.97
2023-05-19T22:04:11.371Z,102138.09
2023-05-19T22:06:37.960Z,102134.66
2023-05-19T22:09:04.543Z,102133.16
2023-05-19T22:11:31.091Z,102130.34
2023-05-19T22:13:57.593Z,102125.13
2023-05-19T22:16:24.149Z,102136.47
2023-05-19T22:18:50.736Z,102138.13
2023-05-19T22:21:17.332Z,102140.56
2023-05-19T22:23:44.027Z,102137.03
2023-05-19T22:26:10.624Z,102139.38
2023-05-19T22:28:37.203Z,102138.53
2023-05-19T22:31:03.921Z,102141.25
2023-05-19T22:33:30.520Z,102133.09
2023-05-19T22:35:57.048Z,102134.88
2023-05-19T22:38:23.522Z,102142.16
2023-05-19T22:40:50.016Z,102135.88
2023-05-19T22:43:16.504Z,102129.59
2023-05-19T22:45:43.078Z,102135.13
2023-05-19T22:48:09.591Z,102133.16
2023-05-19T22:50:36.360Z,102132.31
2023-05-19T22:53:02.954Z,102130.44
2023-05-19T22:55:29.412Z,102131.59
2023-05-19T22:57:56.004Z,102134.09
2023-05-19T23:00:22.682Z,102127.50
2023-05-19T23:02:49.495Z,102130.88
2023-05-19T23:05:16.315Z,102121.22
2023-05-19T23:07:42.843Z,102130.09
2023-05-19T23:10:09.719Z,102128.19
2023-05-19T23:12:36.299Z,102124.50
2023-05-19T23:15:03.607Z,102120.41
2023-05-19T23:17:30.234Z,102131.84
2023-05-19T23:19:56.889Z,102125.63
2023-05-19T23:22:23.383Z,102130.88
2023-05-19T23:24:49.862Z,102130.28
2023-05-19T23:27:16.367Z,102131.28
2023-05-19T23:29:47.133Z,102131.44
2023-05-19T23:32:13.655Z,102127.78
2023-05-19T23:34:40.398Z,102134.44
2023-05-19T23:37:07.080Z,102133.06
2023-05-19T23:39:33.630Z,102128.22
2023-05-19T23:42:00.206Z,102127.06
2023-05-19T23:44:27.328Z,102128.38
2023-05-19T23:46:54.162Z,102118.94
2023-05-19T23:49:20.888Z,102124.94
2023-05-19T23:51:47.420Z,102134.34
2023-05-19T23:54:13.900Z,102131.94
2023-05-19T23:56:40.755Z,102134.56
2023-05-19T23:59:07.277Z,102124.09
